sensor_id;sensor_type;location;lat;lon;timestamp;temperature;humidity
78212;SHT31;67490;52.086;5.122;2023-07-22T00:02:10;19.88;65.40
78212;SHT31;67490;52.086;5.122;2023-07-22T00:04:54;19.98;65.33
78212;SHT31;67490;52.086;5.122;2023-07-22T00:07:39;20.02;64.84
78212;SHT31;67490;52.086;5.122;2023-07-22T00:10:24;20.04;64.90
78212;SHT31;67490;52.086;5.122;2023-07-22T00:13:08;20.09;64.75
78212;SHT31;67490;52.086;5.122;2023-07-22T00:15:52;20.08;64.73
78212;SHT31;67490;52.086;5.122;2023-07-22T00:18:38;20.09;64.13
78212;SHT31;67490;52.086;5.122;2023-07-22T00:21:22;20.08;64.07
78212;SHT31;67490;52.086;5.122;2023-07-22T00:24:07;20.08;64.01
78212;SHT31;67490;52.086;5.122;2023-07-22T00:26:52;20.08;63.95
78212;SHT31;67490;52.086;5.122;2023-07-22T00:29:36;20.10;63.76
78212;SHT31;67490;52.086;5.122;2023-07-22T00:32:21;20.08;64.24
78212;SHT31;67490;52.086;5.122;2023-07-22T00:35:07;20.10;63.93
78212;SHT31;67490;52.086;5.122;2023-07-22T00:37:53;20.08;64.08
78212;SHT31;67490;52.086;5.122;2023-07-22T00:40:38;20.04;64.62
78212;SHT31;67490;52.086;5.122;2023-07-22T00:43:22;20.10;64.47
78212;SHT31;67490;52.086;5.122;2023-07-22T00:46:07;20.13;64.05
78212;SHT31;67490;52.086;5.122;2023-07-22T00:48:52;20.15;63.76
78212;SHT31;67490;52.086;5.122;2023-07-22T00:51:39;20.13;63.96
78212;SHT31;67490;52.086;5.122;2023-07-22T00:54:23;20.12;63.80
78212;SHT31;67490;52.086;5.122;2023-07-22T00:57:09;20.16;63.81
78212;SHT31;67490;52.086;5.122;2023-07-22T00:59:54;20.16;63.89
78212;SHT31;67490;52.086;5.122;2023-07-22T01:02:39;20.16;63.86
78212;SHT31;67490;52.086;5.122;2023-07-22T01:05:25;20.13;63.91
78212;SHT31;67490;52.086;5.122;2023-07-22T01:08:12;20.10;63.98
78212;SHT31;67490;52.086;5.122;2023-07-22T01:10:56;20.06;64.00
78212;SHT31;67490;52.086;5.122;2023-07-22T01:13:41;20.08;64.19
78212;SHT31;67490;52.086;5.122;2023-07-22T01:16:26;20.08;64.33
78212;SHT31;67490;52.086;5.122;2023-07-22T01:19:14;20.09;64.07
78212;SHT31;67490;52.086;5.122;2023-07-22T01:22:00;20.02;64.22
78212;SHT31;67490;52.086;5.122;2023-07-22T01:24:47;20.04;64.04
78212;SHT31;67490;52.086;5.122;2023-07-22T01:27:31;20.02;63.87
78212;SHT31;67490;52.086;5.122;2023-07-22T01:30:15;20.00;64.09
78212;SHT31;67490;52.086;5.122;2023-07-22T01:33:00;20.00;63.91
78212;SHT31;67490;52.086;5.122;2023-07-22T01:35:44;19.93;64.14
78212;SHT31;67490;52.086;5.122;2023-07-22T01:38:28;19.89;64.05
78212;SHT31;67490;52.086;5.122;2023-07-22T01:41:14;19.89;64.28
78212;SHT31;67490;52.086;5.122;2023-07-22T01:43:59;19.88;64.29
78212;SHT31;67490;52.086;5.122;2023-07-22T01:46:43;19.89;64.66
78212;SHT31;67490;52.086;5.122;2023-07-22T01:49:28;19.89;64.51
78212;SHT31;67490;52.086;5.122;2023-07-22T01:52:12;19.88;64.60
78212;SHT31;67490;52.086;5.122;2023-07-22T01:54:57;19.91;64.57
78212;SHT31;67490;52.086;5.122;2023-07-22T01:57:43;19.91;64.56
78212;SHT31;67490;52.086;5.122;2023-07-22T02:00:27;19.92;64.60
78212;SHT31;67490;52.086;5.122;2023-07-22T02:03:12;19.95;64.19
78212;SHT31;67490;52.086;5.122;2023-07-22T02:06:01;19.89;64.48
78212;SHT31;67490;52.086;5.122;2023-07-22T02:08:46;19.89;64.66
78212;SHT31;67490;52.086;5.122;2023-07-22T02:11:31;19.92;64.50
78212;SHT31;67490;52.086;5.122;2023-07-22T02:14:17;19.91;64.50
78212;SHT31;67490;52.086;5.122;2023-07-22T02:17:01;19.95;64.57
78212;SHT31;67490;52.086;5.122;2023-07-22T02:19:46;19.93;64.24
78212;SHT31;67490;52.086;5.122;2023-07-22T02:22:30;19.95;64.16
78212;SHT31;67490;52.086;5.122;2023-07-22T02:25:15;19.93;64.26
78212;SHT31;67490;52.086;5.122;2023-07-22T02:27:59;19.93;64.12
78212;SHT31;67490;52.086;5.122;2023-07-22T02:30:44;19.92;64.19
78212;SHT31;67490;52.086;5.122;2023-07-22T02:33:29;19.93;64.17
78212;SHT31;67490;52.086;5.122;2023-07-22T02:36:13;19.91;64.13
78212;SHT31;67490;52.086;5.122;2023-07-22T02:38:58;19.91;64.09
78212;SHT31;67490;52.086;5.122;2023-07-22T02:41:42;19.89;64.21
78212;SHT31;67490;52.086;5.122;2023-07-22T02:44:27;19.83;64.14
78212;SHT31;67490;52.086;5.122;2023-07-22T02:47:13;19.89;64.22
78212;SHT31;67490;52.086;5.122;2023-07-22T02:49:58;19.88;64.09
78212;SHT31;67490;52.086;5.122;2023-07-22T02:52:42;19.91;64.11
78212;SHT31;67490;52.086;5.122;2023-07-22T02:55:26;19.92;64.07
78212;SHT31;67490;52.086;5.122;2023-07-22T02:58:11;19.88;63.56
78212;SHT31;67490;52.086;5.122;2023-07-22T03:00:55;19.82;63.94
78212;SHT31;67490;52.086;5.122;2023-07-22T03:03:43;19.82;64.04
78212;SHT31;67490;52.086;5.122;2023-07-22T03:06:27;19.85;63.90
78212;SHT31;67490;52.086;5.122;2023-07-22T03:09:13;19.86;63.56
78212;SHT31;67490;52.086;5.122;2023-07-22T03:11:57;19.82;63.81
78212;SHT31;67490;52.086;5.122;2023-07-22T03:14:41;19.82;63.75
78212;SHT31;67490;52.086;5.122;2023-07-22T03:17:26;19.83;64.01
78212;SHT31;67490;52.086;5.122;2023-07-22T03:20:12;19.79;63.88
78212;SHT31;67490;52.086;5.122;2023-07-22T03:23:03;19.75;63.70
78212;SHT31;67490;52.086;5.122;2023-07-22T03:25:48;19.72;64.10
78212;SHT31;67490;52.086;5.122;2023-07-22T03:28:33;19.74;64.11
78212;SHT31;67490;52.086;5.122;2023-07-22T03:31:17;19.68;64.28
78212;SHT31;67490;52.086;5.122;2023-07-22T03:34:02;19.65;64.34
78212;SHT31;67490;52.086;5.122;2023-07-22T03:36:48;19.62;64.43
78212;SHT31;67490;52.086;5.122;2023-07-22T03:39:32;19.58;64.48
78212;SHT31;67490;52.086;5.122;2023-07-22T03:42:17;19.58;64.40
78212;SHT31;67490;52.086;5.122;2023-07-22T03:45:01;19.55;64.39
78212;SHT31;67490;52.086;5.122;2023-07-22T03:47:47;19.57;64.44
78212;SHT31;67490;52.086;5.122;2023-07-22T03:50:31;19.58;64.58
78212;SHT31;67490;52.086;5.122;2023-07-22T03:53:17;19.61;64.17
78212;SHT31;67490;52.086;5.122;2023-07-22T03:56:01;19.61;63.81
78212;SHT31;67490;52.086;5.122;2023-07-22T03:58:45;19.60;64.01
78212;SHT31;67490;52.086;5.122;2023-07-22T04:01:30;19.60;63.54
78212;SHT31;67490;52.086;5.122;2023-07-22T04:04:14;19.65;63.83
78212;SHT31;67490;52.086;5.122;2023-07-22T04:06:58;19.64;63.56
78212;SHT31;67490;52.086;5.122;2023-07-22T04:09:44;19.58;64.24
78212;SHT31;67490;52.086;5.122;2023-07-22T04:12:32;19.64;64.14
78212;SHT31;67490;52.086;5.122;2023-07-22T04:15:16;19.62;64.49
78212;SHT31;67490;52.086;5.122;2023-07-22T04:18:01;19.70;64.32
78212;SHT31;67490;52.086;5.122;2023-07-22T04:20:46;19.68;64.18
78212;SHT31;67490;52.086;5.122;2023-07-22T04:23:32;19.68;64.54
78212;SHT31;67490;52.086;5.122;2023-07-22T04:26:19;19.67;64.62
78212;SHT31;67490;52.086;5.122;2023-07-22T04:29:03;19.65;64.85
78212;SHT31;67490;52.086;5.122;2023-07-22T04:31:48;19.74;64.88
78212;SHT31;67490;52.086;5.122;2023-07-22T04:34:32;19.71;64.91
78212;SHT31;67490;52.086;5.122;2023-07-22T04:37:16;19.71;65.40
78212;SHT31;67490;52.086;5.122;2023-07-22T04:40:01;19.61;65.60
78212;SHT31;67490;52.086;5.122;2023-07-22T04:42:47;19.61;66.11
78212;SHT31;67490;52.086;5.122;2023-07-22T04:45:32;19.71;65.94
78212;SHT31;67490;52.086;5.122;2023-07-22T04:48:17;19.75;65.89
78212;SHT31;67490;52.086;5.122;2023-07-22T04:51:02;19.72;66.18
78212;SHT31;67490;52.086;5.122;2023-07-22T04:53:46;19.75;66.32
78212;SHT31;67490;52.086;5.122;2023-07-22T04:56:30;19.78;66.23
78212;SHT31;67490;52.086;5.122;2023-07-22T04:59:15;19.77;66.56
78212;SHT31;67490;52.086;5.122;2023-07-22T05:02:00;19.75;66.78
78212;SHT31;67490;52.086;5.122;2023-07-22T05:04:44;19.81;66.64
78212;SHT31;67490;52.086;5.122;2023-07-22T05:07:28;19.85;66.72
78212;SHT31;67490;52.086;5.122;2023-07-22T05:10:13;19.83;66.77
78212;SHT31;67490;52.086;5.122;2023-07-22T05:12:58;19.88;66.86
78212;SHT31;67490;52.086;5.122;2023-07-22T05:15:44;19.91;66.85
78212;SHT31;67490;52.086;5.122;2023-07-22T05:18:28;19.91;66.90
78212;SHT31;67490;52.086;5.122;2023-07-22T05:21:13;19.98;66.79
78212;SHT31;67490;52.086;5.122;2023-07-22T05:23:57;20.04;66.90
78212;SHT31;67490;52.086;5.122;2023-07-22T05:26:41;20.09;66.79
78212;SHT31;67490;52.086;5.122;2023-07-22T05:29:25;20.08;66.88
78212;SHT31;67490;52.086;5.122;2023-07-22T05:32:11;20.06;67.01
78212;SHT31;67490;52.086;5.122;2023-07-22T05:34:56;20.12;66.81
78212;SHT31;67490;52.086;5.122;2023-07-22T05:37:40;20.16;66.60
78212;SHT31;67490;52.086;5.122;2023-07-22T05:40:24;20.12;66.67
78212;SHT31;67490;52.086;5.122;2023-07-22T05:43:08;20.09;66.83
78212;SHT31;67490;52.086;5.122;2023-07-22T05:45:53;20.04;66.99
78212;SHT31;67490;52.086;5.122;2023-07-22T05:48:38;20.05;67.05
78212;SHT31;67490;52.086;5.122;2023-07-22T05:51:23;20.09;66.96
78212;SHT31;67490;52.086;5.122;2023-07-22T05:54:08;20.19;66.79
78212;SHT31;67490;52.086;5.122;2023-07-22T05:56:52;20.23;66.55
78212;SHT31;67490;52.086;5.122;2023-07-22T05:59:37;20.29;66.44
78212;SHT31;67490;52.086;5.122;2023-07-22T06:02:22;20.28;66.33
78212;SHT31;67490;52.086;5.122;2023-07-22T06:05:08;20.32;66.14
78212;SHT31;67490;52.086;5.122;2023-07-22T06:07:53;20.34;66.41
78212;SHT31;67490;52.086;5.122;2023-07-22T06:10:39;20.34;66.23
78212;SHT31;67490;52.086;5.122;2023-07-22T06:13:24;20.40;65.98
78212;SHT31;67490;52.086;5.122;2023-07-22T06:16:08;20.46;66.12
78212;SHT31;67490;52.086;5.122;2023-07-22T06:18:53;20.60;65.86
78212;SHT31;67490;52.086;5.122;2023-07-22T06:21:39;20.74;65.58
78212;SHT31;67490;52.086;5.122;2023-07-22T06:24:23;20.81;65.33
78212;SHT31;67490;52.086;5.122;2023-07-22T06:27:08;20.90;65.21
78212;SHT31;67490;52.086;5.122;2023-07-22T06:29:52;20.91;64.91
78212;SHT31;67490;52.086;5.122;2023-07-22T06:32:38;20.94;65.09
78212;SHT31;67490;52.086;5.122;2023-07-22T06:35:22;20.98;64.93
78212;SHT31;67490;52.086;5.122;2023-07-22T06:38:08;21.02;64.86
78212;SHT31;67490;52.086;5.122;2023-07-22T06:40:53;21.14;64.79
78212;SHT31;67490;52.086;5.122;2023-07-22T06:43:37;21.29;64.09
78212;SHT31;67490;52.086;5.122;2023-07-22T06:46:22;21.14;64.49
78212;SHT31;67490;52.086;5.122;2023-07-22T06:49:06;21.04;64.62
78212;SHT31;67490;52.086;5.122;2023-07-22T06:51:51;20.99;64.93
78212;SHT31;67490;52.086;5.122;2023-07-22T06:54:37;21.08;64.80
78212;SHT31;67490;52.086;5.122;2023-07-22T06:57:21;21.09;64.79
78212;SHT31;67490;52.086;5.122;2023-07-22T07:00:07;21.22;64.60
78212;SHT31;67490;52.086;5.122;2023-07-22T07:02:53;21.32;64.32
78212;SHT31;67490;52.086;5.122;2023-07-22T07:05:39;21.48;63.87
78212;SHT31;67490;52.086;5.122;2023-07-22T07:08:25;21.60;63.22
78212;SHT31;67490;52.086;5.122;2023-07-22T07:11:11;21.57;63.50
78212;SHT31;67490;52.086;5.122;2023-07-22T07:13:55;21.63;63.18
78212;SHT31;67490;52.086;5.122;2023-07-22T07:16:40;21.62;63.05
78212;SHT31;67490;52.086;5.122;2023-07-22T07:19:25;21.53;63.30
78212;SHT31;67490;52.086;5.122;2023-07-22T07:22:09;21.43;63.41
78212;SHT31;67490;52.086;5.122;2023-07-22T07:24:54;21.55;63.14
78212;SHT31;67490;52.086;5.122;2023-07-22T07:27:40;21.67;62.81
78212;SHT31;67490;52.086;5.122;2023-07-22T07:30:25;21.70;62.73
78212;SHT31;67490;52.086;5.122;2023-07-22T07:33:09;21.77;62.72
78212;SHT31;67490;52.086;5.122;2023-07-22T07:35:53;21.83;62.61
78212;SHT31;67490;52.086;5.122;2023-07-22T07:38:37;21.92;62.76
78212;SHT31;67490;52.086;5.122;2023-07-22T07:41:21;22.10;61.89
78212;SHT31;67490;52.086;5.122;2023-07-22T07:44:07;22.20;61.35
78212;SHT31;67490;52.086;5.122;2023-07-22T07:46:51;22.03;61.66
78212;SHT31;67490;52.086;5.122;2023-07-22T07:49:36;21.97;61.78
78212;SHT31;67490;52.086;5.122;2023-07-22T07:52:21;22.10;61.65
78212;SHT31;67490;52.086;5.122;2023-07-22T07:55:06;22.31;61.48
78212;SHT31;67490;52.086;5.122;2023-07-22T07:57:50;22.58;60.30
78212;SHT31;67490;52.086;5.122;2023-07-22T08:00:36;22.65;59.82
78212;SHT31;67490;52.086;5.122;2023-07-22T08:03:21;22.75;59.83
78212;SHT31;67490;52.086;5.122;2023-07-22T08:06:05;22.49;59.47
78212;SHT31;67490;52.086;5.122;2023-07-22T08:08:50;22.35;60.17
78212;SHT31;67490;52.086;5.122;2023-07-22T08:11:35;22.59;60.05
78212;SHT31;67490;52.086;5.122;2023-07-22T08:14:19;22.51;59.72
78212;SHT31;67490;52.086;5.122;2023-07-22T08:17:05;22.27;60.46
78212;SHT31;67490;52.086;5.122;2023-07-22T08:19:49;22.22;60.78
78212;SHT31;67490;52.086;5.122;2023-07-22T08:22:34;22.47;60.13
78212;SHT31;67490;52.086;5.122;2023-07-22T08:25:18;22.44;59.72
78212;SHT31;67490;52.086;5.122;2023-07-22T08:28:03;22.77;59.84
78212;SHT31;67490;52.086;5.122;2023-07-22T08:30:47;23.10;58.29
78212;SHT31;67490;52.086;5.122;2023-07-22T08:33:33;23.44;57.35
78212;SHT31;67490;52.086;5.122;2023-07-22T08:36:18;23.75;56.53
78212;SHT31;67490;52.086;5.122;2023-07-22T08:39:02;23.85;56.38
78212;SHT31;67490;52.086;5.122;2023-07-22T08:41:49;23.71;55.77
78212;SHT31;67490;52.086;5.122;2023-07-22T08:44:38;23.68;56.45
78212;SHT31;67490;52.086;5.122;2023-07-22T08:47:29;23.39;55.85
78212;SHT31;67490;52.086;5.122;2023-07-22T08:50:20;23.28;56.32
78212;SHT31;67490;52.086;5.122;2023-07-22T08:53:05;23.20;56.18
78212;SHT31;67490;52.086;5.122;2023-07-22T08:55:51;23.14;56.66
78212;SHT31;67490;52.086;5.122;2023-07-22T08:58:36;23.23;56.44
78212;SHT31;67490;52.086;5.122;2023-07-22T09:01:21;23.10;56.09
78212;SHT31;67490;52.086;5.122;2023-07-22T09:04:07;22.83;56.17
78212;SHT31;67490;52.086;5.122;2023-07-22T09:06:54;22.92;56.18
78212;SHT31;67490;52.086;5.122;2023-07-22T09:09:40;23.02;55.62
78212;SHT31;67490;52.086;5.122;2023-07-22T09:12:25;23.06;56.22
78212;SHT31;67490;52.086;5.122;2023-07-22T09:15:12;23.31;55.27
78212;SHT31;67490;52.086;5.122;2023-07-22T09:17:56;23.26;55.33
78212;SHT31;67490;52.086;5.122;2023-07-22T09:20:40;23.22;55.47
78212;SHT31;67490;52.086;5.122;2023-07-22T09:23:37;23.20;55.53
78212;SHT31;67490;52.086;5.122;2023-07-22T09:26:22;23.28;55.38
78212;SHT31;67490;52.086;5.122;2023-07-22T09:29:06;23.39;55.41
78212;SHT31;67490;52.086;5.122;2023-07-22T09:31:52;22.92;54.24
78212;SHT31;67490;52.086;5.122;2023-07-22T09:34:36;22.68;54.57
78212;SHT31;67490;52.086;5.122;2023-07-22T09:37:21;22.66;55.07
78212;SHT31;67490;52.086;5.122;2023-07-22T09:40:15;22.82;55.78
78212;SHT31;67490;52.086;5.122;2023-07-22T09:43:02;23.00;55.03
78212;SHT31;67490;52.086;5.122;2023-07-22T09:45:48;23.12;55.23
78212;SHT31;67490;52.086;5.122;2023-07-22T09:48:39;23.23;54.92
78212;SHT31;67490;52.086;5.122;2023-07-22T09:51:24;23.24;53.93
78212;SHT31;67490;52.086;5.122;2023-07-22T09:54:09;23.16;53.78
78212;SHT31;67490;52.086;5.122;2023-07-22T09:56:54;23.42;53.50
78212;SHT31;67490;52.086;5.122;2023-07-22T09:59:39;23.42;52.43
78212;SHT31;67490;52.086;5.122;2023-07-22T10:02:24;23.49;52.80
78212;SHT31;67490;52.086;5.122;2023-07-22T10:05:13;23.37;52.69
78212;SHT31;67490;52.086;5.122;2023-07-22T10:07:59;23.78;52.46
78212;SHT31;67490;52.086;5.122;2023-07-22T10:10:45;23.86;51.84
78212;SHT31;67490;52.086;5.122;2023-07-22T10:13:31;23.67;51.56
78212;SHT31;67490;52.086;5.122;2023-07-22T10:16:17;23.47;51.93
78212;SHT31;67490;52.086;5.122;2023-07-22T10:19:04;23.51;52.09
78212;SHT31;67490;52.086;5.122;2023-07-22T10:21:49;23.54;52.43
78212;SHT31;67490;52.086;5.122;2023-07-22T10:24:35;23.55;52.48
78212;SHT31;67490;52.086;5.122;2023-07-22T10:27:21;23.46;52.26
78212;SHT31;67490;52.086;5.122;2023-07-22T10:30:11;23.37;52.26
78212;SHT31;67490;52.086;5.122;2023-07-22T10:32:56;23.19;52.47
78212;SHT31;67490;52.086;5.122;2023-07-22T10:35:42;23.06;53.02
78212;SHT31;67490;52.086;5.122;2023-07-22T10:38:30;22.91;53.45
78212;SHT31;67490;52.086;5.122;2023-07-22T10:41:16;22.69;53.24
78212;SHT31;67490;52.086;5.122;2023-07-22T10:44:00;22.59;53.29
78212;SHT31;67490;52.086;5.122;2023-07-22T10:46:56;22.69;53.45
78212;SHT31;67490;52.086;5.122;2023-07-22T10:49:46;22.64;53.44
78212;SHT31;67490;52.086;5.122;2023-07-22T10:52:39;22.69;53.71
78212;SHT31;67490;52.086;5.122;2023-07-22T10:55:25;22.75;53.78
78212;SHT31;67490;52.086;5.122;2023-07-22T10:58:10;22.88;53.71
78212;SHT31;67490;52.086;5.122;2023-07-22T11:00:54;22.88;53.67
78212;SHT31;67490;52.086;5.122;2023-07-22T11:04:05;22.99;54.17
78212;SHT31;67490;52.086;5.122;2023-07-22T11:06:54;23.13;54.05
78212;SHT31;67490;52.086;5.122;2023-07-22T11:09:40;23.17;54.35
78212;SHT31;67490;52.086;5.122;2023-07-22T11:12:27;23.31;54.36
78212;SHT31;67490;52.086;5.122;2023-07-22T11:15:15;23.19;55.25
78212;SHT31;67490;52.086;5.122;2023-07-22T11:18:00;22.91;56.29
78212;SHT31;67490;52.086;5.122;2023-07-22T11:20:45;22.73;56.59
78212;SHT31;67490;52.086;5.122;2023-07-22T11:23:33;22.69;57.13
78212;SHT31;67490;52.086;5.122;2023-07-22T11:26:17;22.68;57.04
78212;SHT31;67490;52.086;5.122;2023-07-22T11:29:03;22.52;57.09
78212;SHT31;67490;52.086;5.122;2023-07-22T11:31:50;22.44;57.35
78212;SHT31;67490;52.086;5.122;2023-07-22T11:34:34;22.40;57.80
78212;SHT31;67490;52.086;5.122;2023-07-22T11:37:20;22.40;58.27
78212;SHT31;67490;52.086;5.122;2023-07-22T11:40:05;22.20;60.90
78212;SHT31;67490;52.086;5.122;2023-07-22T11:42:52;22.03;63.79
78212;SHT31;67490;52.086;5.122;2023-07-22T11:45:38;21.73;66.46
78212;SHT31;67490;52.086;5.122;2023-07-22T11:48:23;21.55;68.31
78212;SHT31;67490;52.086;5.122;2023-07-22T11:51:07;21.48;68.90
78212;SHT31;67490;52.086;5.122;2023-07-22T11:53:54;21.43;68.53
78212;SHT31;67490;52.086;5.122;2023-07-22T11:56:39;21.36;68.31
78212;SHT31;67490;52.086;5.122;2023-07-22T11:59:35;21.28;69.83
78212;SHT31;67490;52.086;5.122;2023-07-22T12:02:20;21.32;69.23
78212;SHT31;67490;52.086;5.122;2023-07-22T12:05:06;21.28;68.03
78212;SHT31;67490;52.086;5.122;2023-07-22T12:07:50;21.12;68.37
78212;SHT31;67490;52.086;5.122;2023-07-22T12:10:36;21.08;69.17
78212;SHT31;67490;52.086;5.122;2023-07-22T12:13:20;21.09;68.70
78212;SHT31;67490;52.086;5.122;2023-07-22T12:16:05;21.18;69.46
78212;SHT31;67490;52.086;5.122;2023-07-22T12:18:50;21.27;69.25
78212;SHT31;67490;52.086;5.122;2023-07-22T12:21:38;21.39;69.43
78212;SHT31;67490;52.086;5.122;2023-07-22T12:24:23;21.50;69.40
78212;SHT31;67490;52.086;5.122;2023-07-22T12:27:09;21.59;68.94
78212;SHT31;67490;52.086;5.122;2023-07-22T12:29:54;21.65;68.19
78212;SHT31;67490;52.086;5.122;2023-07-22T12:32:38;21.80;67.96
78212;SHT31;67490;52.086;5.122;2023-07-22T12:35:23;21.87;68.11
78212;SHT31;67490;52.086;5.122;2023-07-22T12:38:07;22.00;67.96
78212;SHT31;67490;52.086;5.122;2023-07-22T12:40:51;22.20;67.39
78212;SHT31;67490;52.086;5.122;2023-07-22T12:43:37;22.34;67.65
78212;SHT31;67490;52.086;5.122;2023-07-22T12:46:22;22.40;67.20
78212;SHT31;67490;52.086;5.122;2023-07-22T12:49:07;22.41;66.10
78212;SHT31;67490;52.086;5.122;2023-07-22T12:51:51;22.30;65.05
78212;SHT31;67490;52.086;5.122;2023-07-22T12:54:36;22.27;66.23
78212;SHT31;67490;52.086;5.122;2023-07-22T12:57:21;22.18;63.50
78212;SHT31;67490;52.086;5.122;2023-07-22T13:00:08;22.17;64.39
78212;SHT31;67490;52.086;5.122;2023-07-22T13:02:55;22.24;66.80
78212;SHT31;67490;52.086;5.122;2023-07-22T13:05:41;22.14;61.56
78212;SHT31;67490;52.086;5.122;2023-07-22T13:08:25;21.82;61.62
78212;SHT31;67490;52.086;5.122;2023-07-22T13:11:09;21.67;62.43
78212;SHT31;67490;52.086;5.122;2023-07-22T13:13:54;21.59;60.96
78212;SHT31;67490;52.086;5.122;2023-07-22T13:16:40;21.42;60.96
78212;SHT31;67490;52.086;5.122;2023-07-22T13:19:24;21.31;61.32
78212;SHT31;67490;52.086;5.122;2023-07-22T13:22:09;21.24;61.29
78212;SHT31;67490;52.086;5.122;2023-07-22T13:24:53;21.08;62.18
78212;SHT31;67490;52.086;5.122;2023-07-22T13:27:38;21.07;62.50
78212;SHT31;67490;52.086;5.122;2023-07-22T13:30:24;20.97;61.75
78212;SHT31;67490;52.086;5.122;2023-07-22T13:33:10;20.88;62.56
78212;SHT31;67490;52.086;5.122;2023-07-22T13:35:56;20.90;63.15
78212;SHT31;67490;52.086;5.122;2023-07-22T13:38:40;21.11;63.66
78212;SHT31;67490;52.086;5.122;2023-07-22T13:41:25;21.11;62.14
78212;SHT31;67490;52.086;5.122;2023-07-22T13:44:09;21.19;61.56
78212;SHT31;67490;52.086;5.122;2023-07-22T13:46:53;21.19;60.44
78212;SHT31;67490;52.086;5.122;2023-07-22T13:49:38;21.19;60.95
78212;SHT31;67490;52.086;5.122;2023-07-22T13:52:23;21.27;61.35
78212;SHT31;67490;52.086;5.122;2023-07-22T13:55:08;21.35;60.33
78212;SHT31;67490;52.086;5.122;2023-07-22T13:57:53;21.50;60.88
78212;SHT31;67490;52.086;5.122;2023-07-22T14:00:37;21.63;60.09
78212;SHT31;67490;52.086;5.122;2023-07-22T14:03:22;21.77;60.18
78212;SHT31;67490;52.086;5.122;2023-07-22T14:06:07;21.90;58.59
78212;SHT31;67490;52.086;5.122;2023-07-22T14:08:52;21.87;59.12
78212;SHT31;67490;52.086;5.122;2023-07-22T14:11:37;21.85;58.95
78212;SHT31;67490;52.086;5.122;2023-07-22T14:14:21;21.87;59.00
78212;SHT31;67490;52.086;5.122;2023-07-22T14:17:12;21.97;59.89
78212;SHT31;67490;52.086;5.122;2023-07-22T14:19:56;22.06;57.25
78212;SHT31;67490;52.086;5.122;2023-07-22T14:22:41;22.07;57.10
78212;SHT31;67490;52.086;5.122;2023-07-22T14:25:26;22.04;58.62
78212;SHT31;67490;52.086;5.122;2023-07-22T14:28:11;22.07;57.35
78212;SHT31;67490;52.086;5.122;2023-07-22T14:30:56;22.16;58.49
78212;SHT31;67490;52.086;5.122;2023-07-22T14:33:39;22.17;56.88
78212;SHT31;67490;52.086;5.122;2023-07-22T14:36:24;22.17;55.96
78212;SHT31;67490;52.086;5.122;2023-07-22T14:39:09;22.16;56.21
78212;SHT31;67490;52.086;5.122;2023-07-22T14:41:54;22.16;55.69
78212;SHT31;67490;52.086;5.122;2023-07-22T14:44:39;22.14;56.61
78212;SHT31;67490;52.086;5.122;2023-07-22T14:47:23;22.07;55.87
78212;SHT31;67490;52.086;5.122;2023-07-22T14:50:09;22.16;56.94
78212;SHT31;67490;52.086;5.122;2023-07-22T14:52:53;22.18;56.30
78212;SHT31;67490;52.086;5.122;2023-07-22T14:55:39;22.16;55.79
78212;SHT31;67490;52.086;5.122;2023-07-22T14:58:24;22.17;55.88
78212;SHT31;67490;52.086;5.122;2023-07-22T15:01:09;22.21;55.90
78212;SHT31;67490;52.086;5.122;2023-07-22T15:03:53;22.22;54.83
78212;SHT31;67490;52.086;5.122;2023-07-22T15:06:39;22.17;54.85
78212;SHT31;67490;52.086;5.122;2023-07-22T15:09:23;22.17;56.44
78212;SHT31;67490;52.086;5.122;2023-07-22T15:12:09;21.79;58.40
78212;SHT31;67490;52.086;5.122;2023-07-22T15:14:54;21.48;59.67
78212;SHT31;67490;52.086;5.122;2023-07-22T15:17:38;21.36;60.68
78212;SHT31;67490;52.086;5.122;2023-07-22T15:20:23;21.38;60.54
78212;SHT31;67490;52.086;5.122;2023-07-22T15:23:07;21.41;60.50
78212;SHT31;67490;52.086;5.122;2023-07-22T15:25:52;21.52;60.38
78212;SHT31;67490;52.086;5.122;2023-07-22T15:28:38;21.60;60.15
78212;SHT31;67490;52.086;5.122;2023-07-22T15:31:24;21.56;59.98
78212;SHT31;67490;52.086;5.122;2023-07-22T15:34:09;21.52;59.74
78212;SHT31;67490;52.086;5.122;2023-07-22T15:36:53;21.45;59.70
78212;SHT31;67490;52.086;5.122;2023-07-22T15:39:37;21.57;59.81
78212;SHT31;67490;52.086;5.122;2023-07-22T15:42:21;21.66;59.08
78212;SHT31;67490;52.086;5.122;2023-07-22T15:45:08;21.89;59.03
78212;SHT31;67490;52.086;5.122;2023-07-22T15:47:53;21.97;58.72
78212;SHT31;67490;52.086;5.122;2023-07-22T15:50:37;21.90;58.75
78212;SHT31;67490;52.086;5.122;2023-07-22T15:53:22;21.96;58.05
78212;SHT31;67490;52.086;5.122;2023-07-22T15:56:06;22.08;57.99
78212;SHT31;67490;52.086;5.122;2023-07-22T15:58:50;22.24;57.55
78212;SHT31;67490;52.086;5.122;2023-07-22T16:01:36;22.28;57.28
78212;SHT31;67490;52.086;5.122;2023-07-22T16:04:20;22.31;57.40
78212;SHT31;67490;52.086;5.122;2023-07-22T16:07:05;22.44;57.47
78212;SHT31;67490;52.086;5.122;2023-07-22T16:09:51;22.54;57.54
78212;SHT31;67490;52.086;5.122;2023-07-22T16:12:35;22.66;57.26
78212;SHT31;67490;52.086;5.122;2023-07-22T16:15:20;22.77;56.98
78212;SHT31;67490;52.086;5.122;2023-07-22T16:18:06;22.81;56.78
78212;SHT31;67490;52.086;5.122;2023-07-22T16:20:50;22.71;56.53
78212;SHT31;67490;52.086;5.122;2023-07-22T16:23:35;22.73;56.62
78212;SHT31;67490;52.086;5.122;2023-07-22T16:26:19;22.43;57.17
78212;SHT31;67490;52.086;5.122;2023-07-22T16:29:05;22.38;57.20
78212;SHT31;67490;52.086;5.122;2023-07-22T16:31:50;22.38;57.04
78212;SHT31;67490;52.086;5.122;2023-07-22T16:34:36;22.49;57.86
78212;SHT31;67490;52.086;5.122;2023-07-22T16:37:20;22.47;57.18
78212;SHT31;67490;52.086;5.122;2023-07-22T16:40:06;22.48;57.52
78212;SHT31;67490;52.086;5.122;2023-07-22T16:42:52;22.61;57.28
78212;SHT31;67490;52.086;5.122;2023-07-22T16:45:37;22.61;57.34
78212;SHT31;67490;52.086;5.122;2023-07-22T16:48:21;22.75;57.01
78212;SHT31;67490;52.086;5.122;2023-07-22T16:51:06;22.64;57.02
78212;SHT31;67490;52.086;5.122;2023-07-22T16:53:52;22.69;57.29
78212;SHT31;67490;52.086;5.122;2023-07-22T16:56:36;22.82;57.29
78212;SHT31;67490;52.086;5.122;2023-07-22T16:59:21;22.89;56.83
78212;SHT31;67490;52.086;5.122;2023-07-22T17:02:06;22.73;56.99
78212;SHT31;67490;52.086;5.122;2023-07-22T17:04:50;22.72;57.47
78212;SHT31;67490;52.086;5.122;2023-07-22T17:07:36;22.75;57.99
78212;SHT31;67490;52.086;5.122;2023-07-22T17:10:21;22.85;58.05
78212;SHT31;67490;52.086;5.122;2023-07-22T17:13:05;22.86;58.12
78212;SHT31;67490;52.086;5.122;2023-07-22T17:15:50;22.82;58.55
78212;SHT31;67490;52.086;5.122;2023-07-22T17:18:34;22.85;58.35
78212;SHT31;67490;52.086;5.122;2023-07-22T17:21:19;22.77;58.92
78212;SHT31;67490;52.086;5.122;2023-07-22T17:24:05;22.66;58.56